Terminal Aerodrome Forecast
Issued by NWS Raleigh/Durham, NC

Home | Current Version | Previous Version | Text Only | Print | Product List | Glossary On
Versions: 1 2 3 4 5 6 7 8 9 10 11 12 13 14 15 16 17 18 19 20 21 22 23 24 25 26 27 28 29 30 31 32 33 34 35 36 37 38 39 40 41 42
000
FTUS42 KRAH 021258 AAA
TAFFAY
TAF AMD
KFAY 021258Z 0213/0312 00000KT 4SM BR SCT005
      TEMPO 0213/0214 VRB05KT P6SM NSW
     FM021400 VRB05KT P6SM SCT050
     FM030700 VRB03KT 5SM BR SCT005=

USA.gov is the U.S. government's official web portal to all federal, state and local government web resources and services.